sensor_id;sensor_type;location;lat;lon;timestamp;P1;durP1;ratioP1;P2;durP2;ratioP2
71773;SDS011;59607;52.130;5.430;2023-08-06T00:01:30;4.40;;;4.00;;
71773;SDS011;59607;52.130;5.430;2023-08-06T00:04:00;3.78;;;3.47;;
71773;SDS011;59607;52.130;5.430;2023-08-06T00:06:29;5.70;;;3.90;;
71773;SDS011;59607;52.130;5.430;2023-08-06T00:08:58;4.82;;;4.40;;
71773;SDS011;59607;52.130;5.430;2023-08-06T00:11:27;5.60;;;4.43;;
71773;SDS011;59607;52.130;5.430;2023-08-06T00:13:54;4.45;;;3.75;;
71773;SDS011;59607;52.130;5.430;2023-08-06T00:16:21;7.10;;;3.90;;
71773;SDS011;59607;52.130;5.430;2023-08-06T00:18:52;6.57;;;3.80;;
71773;SDS011;59607;52.130;5.430;2023-08-06T00:21:18;4.63;;;4.22;;
71773;SDS011;59607;52.130;5.430;2023-08-06T00:23:45;5.00;;;3.80;;
71773;SDS011;59607;52.130;5.430;2023-08-06T00:26:15;4.13;;;3.83;;
71773;SDS011;59607;52.130;5.430;2023-08-06T00:28:42;4.22;;;3.90;;
71773;SDS011;59607;52.130;5.430;2023-08-06T00:31:08;6.33;;;3.67;;
71773;SDS011;59607;52.130;5.430;2023-08-06T00:33:40;3.88;;;3.58;;
71773;SDS011;59607;52.130;5.430;2023-08-06T00:36:07;5.43;;;3.78;;
71773;SDS011;59607;52.130;5.430;2023-08-06T00:38:37;4.45;;;3.70;;
71773;SDS011;59607;52.130;5.430;2023-08-06T00:41:03;3.80;;;3.50;;
71773;SDS011;59607;52.130;5.430;2023-08-06T00:43:30;6.47;;;3.77;;
71773;SDS011;59607;52.130;5.430;2023-08-06T00:45:56;5.85;;;3.65;;
71773;SDS011;59607;52.130;5.430;2023-08-06T00:48:23;5.07;;;3.95;;
71773;SDS011;59607;52.130;5.430;2023-08-06T00:50:52;4.53;;;4.13;;
71773;SDS011;59607;52.130;5.430;2023-08-06T00:53:19;6.45;;;4.03;;
71773;SDS011;59607;52.130;5.430;2023-08-06T00:55:55;5.03;;;4.07;;
71773;SDS011;59607;52.130;5.430;2023-08-06T00:58:22;5.28;;;4.15;;
71773;SDS011;59607;52.130;5.430;2023-08-06T01:00:58;7.35;;;3.58;;
71773;SDS011;59607;52.130;5.430;2023-08-06T01:03:25;6.05;;;3.90;;
71773;SDS011;59607;52.130;5.430;2023-08-06T01:06:05;4.78;;;4.38;;
71773;SDS011;59607;52.130;5.430;2023-08-06T01:11:33;5.53;;;4.07;;
71773;SDS011;59607;52.130;5.430;2023-08-06T01:14:07;5.20;;;4.65;;
71773;SDS011;59607;52.130;5.430;2023-08-06T01:16:45;5.00;;;4.25;;
71773;SDS011;59607;52.130;5.430;2023-08-06T01:19:18;5.82;;;4.30;;
71773;SDS011;59607;52.130;5.430;2023-08-06T01:21:52;4.93;;;4.43;;
71773;SDS011;59607;52.130;5.430;2023-08-06T01:24:33;4.75;;;4.35;;
71773;SDS011;59607;52.130;5.430;2023-08-06T01:27:10;5.20;;;4.70;;
71773;SDS011;59607;52.130;5.430;2023-08-06T01:29:44;5.00;;;4.60;;
71773;SDS011;59607;52.130;5.430;2023-08-06T01:32:25;6.63;;;4.70;;
71773;SDS011;59607;52.130;5.430;2023-08-06T01:34:55;9.07;;;4.60;;
71773;SDS011;59607;52.130;5.430;2023-08-06T01:37:22;5.22;;;4.82;;
71773;SDS011;59607;52.130;5.430;2023-08-06T01:39:54;5.55;;;4.70;;
71773;SDS011;59607;52.130;5.430;2023-08-06T01:42:20;8.60;;;4.80;;
71773;SDS011;59607;52.130;5.430;2023-08-06T01:44:50;5.35;;;4.88;;
71773;SDS011;59607;52.130;5.430;2023-08-06T01:47:17;5.73;;;4.60;;
71773;SDS011;59607;52.130;5.430;2023-08-06T01:49:43;7.63;;;5.22;;
71773;SDS011;59607;52.130;5.430;2023-08-06T01:52:09;5.82;;;5.32;;
71773;SDS011;59607;52.130;5.430;2023-08-06T01:54:36;7.13;;;5.50;;
71773;SDS011;59607;52.130;5.430;2023-08-06T01:57:07;6.07;;;5.53;;
71773;SDS011;59607;52.130;5.430;2023-08-06T01:59:35;6.07;;;5.57;;
71773;SDS011;59607;52.130;5.430;2023-08-06T02:02:04;8.02;;;5.40;;
71773;SDS011;59607;52.130;5.430;2023-08-06T02:04:31;6.43;;;5.75;;
71773;SDS011;59607;52.130;5.430;2023-08-06T02:07:03;6.43;;;5.80;;
71773;SDS011;59607;52.130;5.430;2023-08-06T02:09:34;7.00;;;6.40;;
71773;SDS011;59607;52.130;5.430;2023-08-06T02:12:04;6.97;;;6.37;;
71773;SDS011;59607;52.130;5.430;2023-08-06T02:14:31;6.97;;;6.38;;
71773;SDS011;59607;52.130;5.430;2023-08-06T02:16:58;8.27;;;6.38;;
71773;SDS011;59607;52.130;5.430;2023-08-06T02:19:28;7.85;;;6.13;;
71773;SDS011;59607;52.130;5.430;2023-08-06T02:21:55;7.00;;;6.30;;
71773;SDS011;59607;52.130;5.430;2023-08-06T02:24:22;8.47;;;6.70;;
71773;SDS011;59607;52.130;5.430;2023-08-06T02:26:48;7.90;;;7.13;;
71773;SDS011;59607;52.130;5.430;2023-08-06T02:29:25;8.52;;;6.65;;
71773;SDS011;59607;52.130;5.430;2023-08-06T02:31:51;9.73;;;6.85;;
71773;SDS011;59607;52.130;5.430;2023-08-06T02:34:21;7.90;;;6.80;;
71773;SDS011;59607;52.130;5.430;2023-08-06T02:36:47;6.70;;;6.10;;
71773;SDS011;59607;52.130;5.430;2023-08-06T02:39:15;7.20;;;6.60;;
71773;SDS011;59607;52.130;5.430;2023-08-06T02:41:45;6.68;;;6.07;;
71773;SDS011;59607;52.130;5.430;2023-08-06T02:44:12;6.85;;;6.25;;
71773;SDS011;59607;52.130;5.430;2023-08-06T02:46:38;6.32;;;5.72;;
71773;SDS011;59607;52.130;5.430;2023-08-06T02:49:10;6.07;;;5.57;;
71773;SDS011;59607;52.130;5.430;2023-08-06T02:51:37;5.82;;;5.38;;
71773;SDS011;59607;52.130;5.430;2023-08-06T02:54:05;6.03;;;5.40;;
71773;SDS011;59607;52.130;5.430;2023-08-06T02:56:32;5.45;;;4.97;;
71773;SDS011;59607;52.130;5.430;2023-08-06T02:58:59;6.05;;;5.45;;
71773;SDS011;59607;52.130;5.430;2023-08-06T03:01:26;5.67;;;5.27;;
71773;SDS011;59607;52.130;5.430;2023-08-06T03:03:56;8.27;;;5.15;;
71773;SDS011;59607;52.130;5.430;2023-08-06T03:06:23;5.63;;;5.13;;
71773;SDS011;59607;52.130;5.430;2023-08-06T03:08:49;5.60;;;5.10;;
71773;SDS011;59607;52.130;5.430;2023-08-06T03:11:21;5.55;;;4.85;;
71773;SDS011;59607;52.130;5.430;2023-08-06T03:13:48;6.77;;;4.77;;
71773;SDS011;59607;52.130;5.430;2023-08-06T03:16:18;5.80;;;5.30;;
71773;SDS011;59607;52.130;5.430;2023-08-06T03:18:44;5.65;;;5.20;;
71773;SDS011;59607;52.130;5.430;2023-08-06T03:21:11;5.72;;;5.15;;
71773;SDS011;59607;52.130;5.430;2023-08-06T03:23:37;5.65;;;4.93;;
71773;SDS011;59607;52.130;5.430;2023-08-06T03:26:10;8.97;;;5.63;;
71773;SDS011;59607;52.130;5.430;2023-08-06T03:28:36;6.43;;;5.15;;
71773;SDS011;59607;52.130;5.430;2023-08-06T03:31:06;6.93;;;5.50;;
71773;SDS011;59607;52.130;5.430;2023-08-06T03:33:32;5.65;;;5.18;;
71773;SDS011;59607;52.130;5.430;2023-08-06T03:35:59;6.03;;;5.50;;
71773;SDS011;59607;52.130;5.430;2023-08-06T03:38:34;6.70;;;5.30;;
71773;SDS011;59607;52.130;5.430;2023-08-06T03:41:01;6.57;;;5.38;;
71773;SDS011;59607;52.130;5.430;2023-08-06T03:43:27;5.70;;;5.20;;
71773;SDS011;59607;52.130;5.430;2023-08-06T03:46:00;6.10;;;5.60;;
71773;SDS011;59607;52.130;5.430;2023-08-06T03:48:27;5.90;;;5.30;;
71773;SDS011;59607;52.130;5.430;2023-08-06T03:50:57;5.57;;;5.17;;
71773;SDS011;59607;52.130;5.430;2023-08-06T03:53:32;7.18;;;6.47;;
71773;SDS011;59607;52.130;5.430;2023-08-06T03:56:05;6.97;;;6.20;;
71773;SDS011;59607;52.130;5.430;2023-08-06T03:58:31;7.10;;;6.50;;
71773;SDS011;59607;52.130;5.430;2023-08-06T04:01:01;6.25;;;5.75;;
71773;SDS011;59607;52.130;5.430;2023-08-06T04:03:33;6.93;;;6.33;;
71773;SDS011;59607;52.130;5.430;2023-08-06T04:06:09;7.20;;;6.60;;
71773;SDS011;59607;52.130;5.430;2023-08-06T04:08:36;7.55;;;6.85;;
71773;SDS011;59607;52.130;5.430;2023-08-06T04:11:06;7.35;;;6.70;;
71773;SDS011;59607;52.130;5.430;2023-08-06T04:13:32;7.88;;;7.18;;
71773;SDS011;59607;52.130;5.430;2023-08-06T04:16:02;8.00;;;7.33;;
71773;SDS011;59607;52.130;5.430;2023-08-06T04:18:35;7.68;;;7.05;;
71773;SDS011;59607;52.130;5.430;2023-08-06T04:21:02;8.90;;;8.02;;
71773;SDS011;59607;52.130;5.430;2023-08-06T04:23:28;9.02;;;8.13;;
71773;SDS011;59607;52.130;5.430;2023-08-06T04:26:01;8.55;;;7.75;;
71773;SDS011;59607;52.130;5.430;2023-08-06T04:28:27;9.10;;;8.30;;
71773;SDS011;59607;52.130;5.430;2023-08-06T04:30:57;8.95;;;8.15;;
71773;SDS011;59607;52.130;5.430;2023-08-06T04:33:27;9.07;;;7.88;;
71773;SDS011;59607;52.130;5.430;2023-08-06T04:35:54;9.38;;;8.38;;
71773;SDS011;59607;52.130;5.430;2023-08-06T04:38:30;10.18;;;8.93;;
71773;SDS011;59607;52.130;5.430;2023-08-06T04:40:58;9.87;;;8.83;;
71773;SDS011;59607;52.130;5.430;2023-08-06T04:43:29;9.05;;;8.15;;
71773;SDS011;59607;52.130;5.430;2023-08-06T04:45:55;12.60;;;8.93;;
71773;SDS011;59607;52.130;5.430;2023-08-06T04:48:25;9.85;;;9.02;;
71773;SDS011;59607;52.130;5.430;2023-08-06T04:50:52;10.35;;;9.35;;
71773;SDS011;59607;52.130;5.430;2023-08-06T04:53:19;10.33;;;8.63;;
71773;SDS011;59607;52.130;5.430;2023-08-06T04:55:45;10.80;;;9.73;;
71773;SDS011;59607;52.130;5.430;2023-08-06T04:58:18;10.82;;;9.52;;
71773;SDS011;59607;52.130;5.430;2023-08-06T05:00:44;9.93;;;9.02;;
71773;SDS011;59607;52.130;5.430;2023-08-06T05:03:14;10.43;;;9.43;;
71773;SDS011;59607;52.130;5.430;2023-08-06T05:05:45;9.37;;;8.57;;
71773;SDS011;59607;52.130;5.430;2023-08-06T05:08:17;10.82;;;9.75;;
71773;SDS011;59607;52.130;5.430;2023-08-06T05:10:47;10.88;;;9.88;;
71773;SDS011;59607;52.130;5.430;2023-08-06T05:13:17;10.52;;;9.48;;
71773;SDS011;59607;52.130;5.430;2023-08-06T05:15:48;11.48;;;10.35;;
71773;SDS011;59607;52.130;5.430;2023-08-06T05:18:15;10.50;;;9.40;;
71773;SDS011;59607;52.130;5.430;2023-08-06T05:20:56;10.93;;;9.82;;
71773;SDS011;59607;52.130;5.430;2023-08-06T05:23:37;11.10;;;10.13;;
71773;SDS011;59607;52.130;5.430;2023-08-06T05:26:10;10.95;;;9.93;;
71773;SDS011;59607;52.130;5.430;2023-08-06T05:28:36;11.00;;;9.82;;
71773;SDS011;59607;52.130;5.430;2023-08-06T05:31:05;11.87;;;10.77;;
71773;SDS011;59607;52.130;5.430;2023-08-06T05:33:36;11.18;;;10.25;;
71773;SDS011;59607;52.130;5.430;2023-08-06T05:36:02;12.00;;;10.80;;
71773;SDS011;59607;52.130;5.430;2023-08-06T05:38:33;12.35;;;11.07;;
71773;SDS011;59607;52.130;5.430;2023-08-06T05:41:03;11.60;;;10.55;;
71773;SDS011;59607;52.130;5.430;2023-08-06T05:43:30;12.13;;;10.93;;
71773;SDS011;59607;52.130;5.430;2023-08-06T05:46:06;13.65;;;11.30;;
71773;SDS011;59607;52.130;5.430;2023-08-06T05:48:43;11.63;;;10.43;;
71773;SDS011;59607;52.130;5.430;2023-08-06T05:51:10;11.55;;;10.45;;
71773;SDS011;59607;52.130;5.430;2023-08-06T05:53:41;11.70;;;10.60;;
71773;SDS011;59607;52.130;5.430;2023-08-06T05:56:14;11.87;;;10.67;;
71773;SDS011;59607;52.130;5.430;2023-08-06T05:58:47;12.70;;;10.77;;
71773;SDS011;59607;52.130;5.430;2023-08-06T06:01:13;12.15;;;10.88;;
71773;SDS011;59607;52.130;5.430;2023-08-06T06:03:43;11.65;;;10.43;;
71773;SDS011;59607;52.130;5.430;2023-08-06T06:06:10;12.15;;;10.95;;
71773;SDS011;59607;52.130;5.430;2023-08-06T06:08:37;11.67;;;10.50;;
71773;SDS011;59607;52.130;5.430;2023-08-06T06:11:06;11.27;;;10.27;;
71773;SDS011;59607;52.130;5.430;2023-08-06T06:13:34;11.25;;;10.15;;
71773;SDS011;59607;52.130;5.430;2023-08-06T06:16:00;12.05;;;10.57;;
71773;SDS011;59607;52.130;5.430;2023-08-06T06:18:27;15.25;;;10.73;;
71773;SDS011;59607;52.130;5.430;2023-08-06T06:21:00;12.23;;;11.03;;
71773;SDS011;59607;52.130;5.430;2023-08-06T06:23:26;14.60;;;10.43;;
71773;SDS011;59607;52.130;5.430;2023-08-06T06:25:56;12.57;;;10.68;;
71773;SDS011;59607;52.130;5.430;2023-08-06T06:28:22;13.05;;;10.98;;
71773;SDS011;59607;52.130;5.430;2023-08-06T06:30:49;12.07;;;10.85;;
71773;SDS011;59607;52.130;5.430;2023-08-06T06:33:26;11.80;;;10.60;;
71773;SDS011;59607;52.130;5.430;2023-08-06T06:35:53;12.40;;;11.20;;
71773;SDS011;59607;52.130;5.430;2023-08-06T06:38:23;12.32;;;11.10;;
71773;SDS011;59607;52.130;5.430;2023-08-06T06:40:58;12.63;;;11.15;;
71773;SDS011;59607;52.130;5.430;2023-08-06T06:43:30;13.32;;;11.32;;
71773;SDS011;59607;52.130;5.430;2023-08-06T06:45:57;11.47;;;10.30;;
71773;SDS011;59607;52.130;5.430;2023-08-06T06:48:28;11.55;;;10.35;;
71773;SDS011;59607;52.130;5.430;2023-08-06T06:50:58;11.95;;;10.25;;
71773;SDS011;59607;52.130;5.430;2023-08-06T06:53:28;11.75;;;9.63;;
71773;SDS011;59607;52.130;5.430;2023-08-06T06:56:05;12.18;;;9.32;;
71773;SDS011;59607;52.130;5.430;2023-08-06T06:58:46;10.90;;;9.90;;
71773;SDS011;59607;52.130;5.430;2023-08-06T07:01:19;10.60;;;9.68;;
71773;SDS011;59607;52.130;5.430;2023-08-06T07:03:45;10.57;;;9.57;;
71773;SDS011;59607;52.130;5.430;2023-08-06T07:06:12;10.15;;;9.20;;
71773;SDS011;59607;52.130;5.430;2023-08-06T07:08:45;10.27;;;9.20;;
71773;SDS011;59607;52.130;5.430;2023-08-06T07:11:12;24.00;;;11.33;;
71773;SDS011;59607;52.130;5.430;2023-08-06T07:13:56;10.10;;;9.25;;
71773;SDS011;59607;52.130;5.430;2023-08-06T07:16:32;10.07;;;9.23;;
71773;SDS011;59607;52.130;5.430;2023-08-06T07:19:10;10.18;;;9.25;;
71773;SDS011;59607;52.130;5.430;2023-08-06T07:21:36;12.90;;;9.55;;
71773;SDS011;59607;52.130;5.430;2023-08-06T07:24:06;10.77;;;9.23;;
71773;SDS011;59607;52.130;5.430;2023-08-06T07:26:32;10.30;;;9.50;;
71773;SDS011;59607;52.130;5.430;2023-08-06T07:28:59;10.27;;;9.38;;
71773;SDS011;59607;52.130;5.430;2023-08-06T07:31:25;9.68;;;8.68;;
71773;SDS011;59607;52.130;5.430;2023-08-06T07:33:58;13.95;;;9.70;;
71773;SDS011;59607;52.130;5.430;2023-08-06T07:36:24;9.77;;;8.87;;
71773;SDS011;59607;52.130;5.430;2023-08-06T07:38:52;10.90;;;9.93;;
71773;SDS011;59607;52.130;5.430;2023-08-06T07:41:30;14.80;;;9.75;;
71773;SDS011;59607;52.130;5.430;2023-08-06T07:44:01;12.80;;;9.60;;
71773;SDS011;59607;52.130;5.430;2023-08-06T07:46:28;11.25;;;9.48;;
71773;SDS011;59607;52.130;5.430;2023-08-06T07:48:58;9.53;;;8.63;;
71773;SDS011;59607;52.130;5.430;2023-08-06T07:51:27;12.75;;;9.02;;
71773;SDS011;59607;52.130;5.430;2023-08-06T07:53:53;10.93;;;9.90;;
71773;SDS011;59607;52.130;5.430;2023-08-06T07:56:35;9.60;;;8.68;;
71773;SDS011;59607;52.130;5.430;2023-08-06T07:59:11;10.25;;;9.35;;
71773;SDS011;59607;52.130;5.430;2023-08-06T08:01:37;9.50;;;8.60;;
71773;SDS011;59607;52.130;5.430;2023-08-06T08:04:06;11.32;;;8.73;;
71773;SDS011;59607;52.130;5.430;2023-08-06T08:06:33;10.57;;;9.18;;
71773;SDS011;59607;52.130;5.430;2023-08-06T08:09:00;9.75;;;8.82;;
71773;SDS011;59607;52.130;5.430;2023-08-06T08:11:29;9.60;;;8.70;;
71773;SDS011;59607;52.130;5.430;2023-08-06T08:13:57;10.03;;;9.10;;
71773;SDS011;59607;52.130;5.430;2023-08-06T08:16:23;9.63;;;8.80;;
71773;SDS011;59607;52.130;5.430;2023-08-06T08:18:50;9.25;;;8.45;;
71773;SDS011;59607;52.130;5.430;2023-08-06T08:21:16;10.40;;;9.40;;
71773;SDS011;59607;52.130;5.430;2023-08-06T08:23:48;7.65;;;7.00;;
71773;SDS011;59607;52.130;5.430;2023-08-06T08:26:23;5.10;;;3.57;;
71773;SDS011;59607;52.130;5.430;2023-08-06T08:28:50;3.85;;;3.50;;
71773;SDS011;59607;52.130;5.430;2023-08-06T08:31:27;3.20;;;3.00;;
71773;SDS011;59607;52.130;5.430;2023-08-06T08:33:54;2.65;;;2.45;;
71773;SDS011;59607;52.130;5.430;2023-08-06T08:36:28;12.40;;;3.35;;
71773;SDS011;59607;52.130;5.430;2023-08-06T08:38:54;1.60;;;1.50;;
71773;SDS011;59607;52.130;5.430;2023-08-06T08:41:31;1.85;;;1.27;;
71773;SDS011;59607;52.130;5.430;2023-08-06T08:43:58;1.50;;;1.35;;
71773;SDS011;59607;52.130;5.430;2023-08-06T08:46:37;2.00;;;0.90;;
71773;SDS011;59607;52.130;5.430;2023-08-06T08:49:16;1.67;;;1.00;;
71773;SDS011;59607;52.130;5.430;2023-08-06T08:51:44;1.00;;;0.90;;
71773;SDS011;59607;52.130;5.430;2023-08-06T08:54:25;4.03;;;0.95;;
71773;SDS011;59607;52.130;5.430;2023-08-06T08:56:59;1.70;;;0.80;;
71773;SDS011;59607;52.130;5.430;2023-08-06T08:59:25;1.70;;;0.63;;
71773;SDS011;59607;52.130;5.430;2023-08-06T09:01:52;1.25;;;0.90;;
71773;SDS011;59607;52.130;5.430;2023-08-06T09:04:27;0.70;;;0.60;;
71773;SDS011;59607;52.130;5.430;2023-08-06T09:07:06;1.08;;;0.75;;
71773;SDS011;59607;52.130;5.430;2023-08-06T09:09:37;0.93;;;0.57;;
71773;SDS011;59607;52.130;5.430;2023-08-06T09:12:19;0.90;;;0.60;;
71773;SDS011;59607;52.130;5.430;2023-08-06T09:14:48;2.90;;;0.70;;
71773;SDS011;59607;52.130;5.430;2023-08-06T09:17:14;1.00;;;0.63;;
71773;SDS011;59607;52.130;5.430;2023-08-06T09:19:51;1.27;;;0.68;;
71773;SDS011;59607;52.130;5.430;2023-08-06T09:22:18;1.70;;;1.00;;
71773;SDS011;59607;52.130;5.430;2023-08-06T09:24:44;1.23;;;0.82;;
71773;SDS011;59607;52.130;5.430;2023-08-06T09:27:11;2.28;;;0.82;;
71773;SDS011;59607;52.130;5.430;2023-08-06T09:29:43;1.40;;;1.07;;
71773;SDS011;59607;52.130;5.430;2023-08-06T09:32:13;1.20;;;1.00;;
71773;SDS011;59607;52.130;5.430;2023-08-06T09:34:43;3.20;;;1.00;;
71773;SDS011;59607;52.130;5.430;2023-08-06T09:37:15;1.20;;;1.10;;
71773;SDS011;59607;52.130;5.430;2023-08-06T09:39:45;1.45;;;1.00;;
71773;SDS011;59607;52.130;5.430;2023-08-06T09:42:14;1.90;;;1.17;;
71773;SDS011;59607;52.130;5.430;2023-08-06T09:44:44;1.40;;;1.10;;
71773;SDS011;59607;52.130;5.430;2023-08-06T09:47:11;2.40;;;1.10;;
71773;SDS011;59607;52.130;5.430;2023-08-06T09:49:41;3.33;;;1.35;;
71773;SDS011;59607;52.130;5.430;2023-08-06T09:52:13;2.53;;;1.38;;
71773;SDS011;59607;52.130;5.430;2023-08-06T09:54:56;2.07;;;1.33;;
71773;SDS011;59607;52.130;5.430;2023-08-06T09:57:35;1.35;;;1.17;;
71773;SDS011;59607;52.130;5.430;2023-08-06T10:00:02;2.00;;;1.40;;
71773;SDS011;59607;52.130;5.430;2023-08-06T10:02:39;4.80;;;1.63;;
71773;SDS011;59607;52.130;5.430;2023-08-06T10:05:10;2.67;;;1.70;;
71773;SDS011;59607;52.130;5.430;2023-08-06T10:07:38;4.53;;;1.70;;
71773;SDS011;59607;52.130;5.430;2023-08-06T10:10:06;3.50;;;1.48;;
71773;SDS011;59607;52.130;5.430;2023-08-06T10:12:34;6.25;;;1.90;;
71773;SDS011;59607;52.130;5.430;2023-08-06T10:15:25;5.00;;;2.00;;
71773;SDS011;59607;52.130;5.430;2023-08-06T10:18:11;2.83;;;2.10;;
71773;SDS011;59607;52.130;5.430;2023-08-06T10:20:38;2.33;;;1.70;;
71773;SDS011;59607;52.130;5.430;2023-08-06T10:23:09;2.35;;;2.15;;
71773;SDS011;59607;52.130;5.430;2023-08-06T10:25:45;3.65;;;2.00;;
71773;SDS011;59607;52.130;5.430;2023-08-06T10:28:42;3.50;;;2.60;;
71773;SDS011;59607;52.130;5.430;2023-08-06T10:31:11;4.53;;;2.70;;
71773;SDS011;59607;52.130;5.430;2023-08-06T10:33:44;3.00;;;2.30;;
71773;SDS011;59607;52.130;5.430;2023-08-06T10:36:15;2.78;;;2.40;;
71773;SDS011;59607;52.130;5.430;2023-08-06T10:38:51;3.83;;;2.00;;
71773;SDS011;59607;52.130;5.430;2023-08-06T10:41:27;2.95;;;2.00;;
71773;SDS011;59607;52.130;5.430;2023-08-06T10:44:10;3.85;;;2.17;;
71773;SDS011;59607;52.130;5.430;2023-08-06T10:46:41;4.27;;;2.40;;
71773;SDS011;59607;52.130;5.430;2023-08-06T10:49:11;2.60;;;2.13;;
71773;SDS011;59607;52.130;5.430;2023-08-06T10:51:43;3.20;;;1.95;;
71773;SDS011;59607;52.130;5.430;2023-08-06T10:54:21;2.72;;;1.80;;
71773;SDS011;59607;52.130;5.430;2023-08-06T10:56:47;2.85;;;2.08;;
71773;SDS011;59607;52.130;5.430;2023-08-06T10:59:17;2.53;;;1.83;;
71773;SDS011;59607;52.130;5.430;2023-08-06T11:01:47;2.45;;;2.03;;
71773;SDS011;59607;52.130;5.430;2023-08-06T11:04:14;4.70;;;1.75;;
71773;SDS011;59607;52.130;5.430;2023-08-06T11:06:51;2.40;;;1.75;;
71773;SDS011;59607;52.130;5.430;2023-08-06T11:09:27;3.55;;;1.67;;
71773;SDS011;59607;52.130;5.430;2023-08-06T11:11:54;2.37;;;1.30;;
71773;SDS011;59607;52.130;5.430;2023-08-06T11:14:30;3.08;;;1.23;;
71773;SDS011;59607;52.130;5.430;2023-08-06T11:16:57;3.17;;;1.67;;
71773;SDS011;59607;52.130;5.430;2023-08-06T11:19:27;2.83;;;1.30;;
71773;SDS011;59607;52.130;5.430;2023-08-06T11:21:54;3.53;;;1.50;;
71773;SDS011;59607;52.130;5.430;2023-08-06T11:24:21;3.40;;;1.20;;
71773;SDS011;59607;52.130;5.430;2023-08-06T11:27:22;4.75;;;0.93;;
71773;SDS011;59607;52.130;5.430;2023-08-06T11:29:59;1.80;;;1.30;;
71773;SDS011;59607;52.130;5.430;2023-08-06T11:32:25;1.45;;;0.95;;
71773;SDS011;59607;52.130;5.430;2023-08-06T11:35:12;2.60;;;1.13;;
71773;SDS011;59607;52.130;5.430;2023-08-06T11:37:45;3.43;;;1.10;;
71773;SDS011;59607;52.130;5.430;2023-08-06T11:40:18;1.50;;;0.80;;
71773;SDS011;59607;52.130;5.430;2023-08-06T11:42:48;2.42;;;0.90;;
71773;SDS011;59607;52.130;5.430;2023-08-06T11:45:17;1.77;;;0.88;;
71773;SDS011;59607;52.130;5.430;2023-08-06T11:47:51;2.13;;;0.90;;
71773;SDS011;59607;52.130;5.430;2023-08-06T11:50:24;2.47;;;1.00;;
71773;SDS011;59607;52.130;5.430;2023-08-06T11:52:57;2.45;;;0.95;;
71773;SDS011;59607;52.130;5.430;2023-08-06T11:55:30;4.13;;;1.33;;
71773;SDS011;59607;52.130;5.430;2023-08-06T11:57:57;3.40;;;1.23;;
71773;SDS011;59607;52.130;5.430;2023-08-06T12:00:35;1.60;;;0.82;;
71773;SDS011;59607;52.130;5.430;2023-08-06T12:03:04;2.13;;;1.03;;
71773;SDS011;59607;52.130;5.430;2023-08-06T12:05:37;2.67;;;0.85;;
71773;SDS011;59607;52.130;5.430;2023-08-06T12:08:05;1.30;;;0.90;;
71773;SDS011;59607;52.130;5.430;2023-08-06T12:10:34;1.80;;;0.85;;
71773;SDS011;59607;52.130;5.430;2023-08-06T12:13:03;1.67;;;1.00;;
71773;SDS011;59607;52.130;5.430;2023-08-06T12:15:34;1.50;;;1.00;;
71773;SDS011;59607;52.130;5.430;2023-08-06T12:18:02;3.25;;;0.80;;
71773;SDS011;59607;52.130;5.430;2023-08-06T12:20:29;1.50;;;0.80;;
71773;SDS011;59607;52.130;5.430;2023-08-06T12:22:55;2.15;;;0.82;;
71773;SDS011;59607;52.130;5.430;2023-08-06T12:25:22;1.58;;;0.57;;
71773;SDS011;59607;52.130;5.430;2023-08-06T12:27:52;1.40;;;0.40;;
71773;SDS011;59607;52.130;5.430;2023-08-06T12:30:18;2.75;;;0.60;;
71773;SDS011;59607;52.130;5.430;2023-08-06T12:32:44;2.30;;;0.60;;
71773;SDS011;59607;52.130;5.430;2023-08-06T12:35:11;1.05;;;0.50;;
71773;SDS011;59607;52.130;5.430;2023-08-06T12:37:37;2.72;;;0.60;;
71773;SDS011;59607;52.130;5.430;2023-08-06T12:40:24;3.73;;;0.60;;
71773;SDS011;59607;52.130;5.430;2023-08-06T12:43:04;3.22;;;0.70;;
71773;SDS011;59607;52.130;5.430;2023-08-06T12:45:36;3.70;;;0.80;;
71773;SDS011;59607;52.130;5.430;2023-08-06T12:48:03;1.00;;;0.55;;
71773;SDS011;59607;52.130;5.430;2023-08-06T12:50:32;1.98;;;0.57;;
71773;SDS011;59607;52.130;5.430;2023-08-06T12:53:02;1.63;;;0.60;;
71773;SDS011;59607;52.130;5.430;2023-08-06T12:55:30;1.65;;;0.65;;
71773;SDS011;59607;52.130;5.430;2023-08-06T12:58:04;1.92;;;0.40;;
71773;SDS011;59607;52.130;5.430;2023-08-06T13:00:31;2.60;;;0.60;;
71773;SDS011;59607;52.130;5.430;2023-08-06T13:03:14;0.85;;;0.57;;
71773;SDS011;59607;52.130;5.430;2023-08-06T13:05:54;1.10;;;0.70;;
71773;SDS011;59607;52.130;5.430;2023-08-06T13:08:35;1.92;;;0.80;;
71773;SDS011;59607;52.130;5.430;2023-08-06T13:11:03;1.20;;;0.70;;
71773;SDS011;59607;52.130;5.430;2023-08-06T13:13:31;1.75;;;0.73;;
71773;SDS011;59607;52.130;5.430;2023-08-06T13:15:57;0.82;;;0.45;;
71773;SDS011;59607;52.130;5.430;2023-08-06T13:18:24;2.10;;;0.60;;
71773;SDS011;59607;52.130;5.430;2023-08-06T13:20:52;1.33;;;0.73;;
71773;SDS011;59607;52.130;5.430;2023-08-06T13:23:21;3.58;;;0.80;;
71773;SDS011;59607;52.130;5.430;2023-08-06T13:25:48;2.60;;;0.85;;
71773;SDS011;59607;52.130;5.430;2023-08-06T13:28:20;2.15;;;0.82;;
71773;SDS011;59607;52.130;5.430;2023-08-06T13:30:47;1.87;;;0.93;;
71773;SDS011;59607;52.130;5.430;2023-08-06T13:33:21;2.85;;;0.80;;
71773;SDS011;59607;52.130;5.430;2023-08-06T13:35:52;5.03;;;1.20;;
71773;SDS011;59607;52.130;5.430;2023-08-06T13:38:23;1.77;;;0.90;;
71773;SDS011;59607;52.130;5.430;2023-08-06T13:40:49;2.47;;;0.80;;
71773;SDS011;59607;52.130;5.430;2023-08-06T13:43:22;3.60;;;1.80;;
71773;SDS011;59607;52.130;5.430;2023-08-06T13:45:56;1.75;;;0.90;;
71773;SDS011;59607;52.130;5.430;2023-08-06T13:48:29;2.08;;;1.10;;
71773;SDS011;59607;52.130;5.430;2023-08-06T13:50:56;1.73;;;0.80;;
71773;SDS011;59607;52.130;5.430;2023-08-06T13:53:24;2.78;;;0.77;;
71773;SDS011;59607;52.130;5.430;2023-08-06T13:55:57;1.40;;;1.07;;
71773;SDS011;59607;52.130;5.430;2023-08-06T13:58:30;1.85;;;0.80;;
71773;SDS011;59607;52.130;5.430;2023-08-06T14:00:59;2.17;;;0.70;;
71773;SDS011;59607;52.130;5.430;2023-08-06T14:03:28;2.35;;;0.70;;
71773;SDS011;59607;52.130;5.430;2023-08-06T14:05:58;2.30;;;0.70;;
71773;SDS011;59607;52.130;5.430;2023-08-06T14:08:25;1.77;;;0.83;;
71773;SDS011;59607;52.130;5.430;2023-08-06T14:11:02;2.17;;;0.80;;
71773;SDS011;59607;52.130;5.430;2023-08-06T14:13:28;1.48;;;0.70;;
71773;SDS011;59607;52.130;5.430;2023-08-06T14:15:55;2.83;;;0.57;;
71773;SDS011;59607;52.130;5.430;2023-08-06T14:18:24;1.33;;;0.60;;
71773;SDS011;59607;52.130;5.430;2023-08-06T14:20:51;1.33;;;0.63;;
71773;SDS011;59607;52.130;5.430;2023-08-06T14:23:21;4.38;;;1.10;;
71773;SDS011;59607;52.130;5.430;2023-08-06T14:25:47;2.00;;;0.98;;
71773;SDS011;59607;52.130;5.430;2023-08-06T14:28:14;3.75;;;0.90;;
71773;SDS011;59607;52.130;5.430;2023-08-06T14:30:40;2.95;;;1.00;;
71773;SDS011;59607;52.130;5.430;2023-08-06T14:33:21;3.10;;;1.17;;
71773;SDS011;59607;52.130;5.430;2023-08-06T14:35:53;1.80;;;1.20;;
71773;SDS011;59607;52.130;5.430;2023-08-06T14:38:19;3.40;;;0.95;;
71773;SDS011;59607;52.130;5.430;2023-08-06T14:40:46;2.10;;;0.90;;
71773;SDS011;59607;52.130;5.430;2023-08-06T14:43:17;2.83;;;0.88;;
71773;SDS011;59607;52.130;5.430;2023-08-06T14:45:44;1.70;;;1.03;;
71773;SDS011;59607;52.130;5.430;2023-08-06T14:48:14;2.55;;;0.63;;
71773;SDS011;59607;52.130;5.430;2023-08-06T14:50:41;1.83;;;0.90;;
71773;SDS011;59607;52.130;5.430;2023-08-06T14:53:07;2.47;;;1.00;;
71773;SDS011;59607;52.130;5.430;2023-08-06T14:55:39;4.18;;;0.82;;
71773;SDS011;59607;52.130;5.430;2023-08-06T14:58:15;3.20;;;0.83;;
71773;SDS011;59607;52.130;5.430;2023-08-06T15:00:48;2.15;;;0.77;;
71773;SDS011;59607;52.130;5.430;2023-08-06T15:03:19;1.08;;;0.60;;
71773;SDS011;59607;52.130;5.430;2023-08-06T15:05:49;3.95;;;0.80;;